createdAt,value
2022-11-01T00:00:37.705Z,0.65
2022-11-01T00:01:41.580Z,0.77
2022-11-01T00:02:44.338Z,0.57
2022-11-01T00:03:54.353Z,0.73
2022-11-01T00:04:57.840Z,0.20
2022-11-01T00:06:00.407Z,0.52
2022-11-01T00:07:05.588Z,0.47
2022-11-01T00:08:08.078Z,0.75
2022-11-01T00:09:18.412Z,0.82
2022-11-01T00:10:20.921Z,0.65
2022-11-01T00:11:24.362Z,0.50
2022-11-01T00:12:26.835Z,0.95
2022-11-01T00:13:30.262Z,0.63
2022-11-01T00:14:39.322Z,0.63
2022-11-01T00:15:42.760Z,0.30
2022-11-01T00:16:45.254Z,0.77
2022-11-01T00:17:48.694Z,0.67
2022-11-01T00:18:54.008Z,0.67
2022-11-01T00:20:04.327Z,0.40
2022-11-01T00:21:07.000Z,0.73
2022-11-01T00:22:18.441Z,0.95
2022-11-01T00:23:27.604Z,0.95
2022-11-01T00:24:31.894Z,0.10
2022-11-01T00:25:41.275Z,1.17
2022-11-01T00:26:51.316Z,0.20
2022-11-01T00:27:53.786Z,0.17
2022-11-01T00:28:57.225Z,0.60
2022-11-01T00:29:59.732Z,0.37
2022-11-01T00:31:03.197Z,0.67
2022-11-01T00:32:13.317Z,0.70
2022-11-01T00:33:16.741Z,0.28
2022-11-01T00:34:19.477Z,0.43
2022-11-01T00:35:22.903Z,0.17
2022-11-01T00:36:25.584Z,1.00
2022-11-01T00:37:38.262Z,0.40
2022-11-01T00:38:40.734Z,1.05
2022-11-01T00:39:44.158Z,0.83
2022-11-01T00:40:46.930Z,0.75
2022-11-01T00:41:50.513Z,1.02
2022-11-01T00:42:59.866Z,0.68
2022-11-01T00:44:09.443Z,1.73
2022-11-01T00:45:12.069Z,1.10
2022-11-01T00:46:15.473Z,1.20
2022-11-01T00:47:18.083Z,1.17
2022-11-01T00:48:29.300Z,1.60
2022-11-01T00:49:38.378Z,1.60
2022-11-01T00:50:41.934Z,1.97
2022-11-01T00:51:45.435Z,1.33
2022-11-01T00:52:49.340Z,0.67
2022-11-01T00:53:52.831Z,1.27
2022-11-01T00:55:02.283Z,1.45
2022-11-01T00:56:13.293Z,0.50
2022-11-01T00:57:15.788Z,0.37
2022-11-01T00:58:19.305Z,0.83
2022-11-01T00:59:28.374Z,0.75
2022-11-01T01:00:32.176Z,0.20
2022-11-01T01:01:34.797Z,1.23
2022-11-01T01:02:38.462Z,2.22
2022-11-01T01:03:41.981Z,3.42
2022-11-01T01:04:51.432Z,2.77
2022-11-01T01:05:55.472Z,3.15
2022-11-01T01:06:58.029Z,3.10
2022-11-01T01:08:03.081Z,2.53
2022-11-01T01:09:05.587Z,2.00
2022-11-01T01:10:16.295Z,0.88
2022-11-01T01:11:18.969Z,2.92
2022-11-01T01:12:29.313Z,2.47
2022-11-01T01:13:38.331Z,2.63
2022-11-01T01:14:41.770Z,2.83
2022-11-01T01:15:44.573Z,2.40
2022-11-01T01:16:54.570Z,0.43
2022-11-01T01:17:57.173Z,1.83
2022-11-01T01:19:07.291Z,0.95
2022-11-01T01:20:10.461Z,0.28
2022-11-01T01:21:15.509Z,0.73
2022-11-01T01:22:24.509Z,0.97
2022-11-01T01:23:42.306Z,2.03
2022-11-01T01:24:54.303Z,0.93
2022-11-01T01:25:57.717Z,0.80
2022-11-01T01:27:00.539Z,1.77
2022-11-01T01:28:10.286Z,0.70
2022-11-01T01:29:19.263Z,0.88
2022-11-01T01:30:22.747Z,0.93
2022-11-01T01:31:25.288Z,0.10
2022-11-01T01:32:28.747Z,0.20
2022-11-01T01:33:31.823Z,0.82
2022-11-01T01:34:41.309Z,0.33
2022-11-01T01:35:44.379Z,0.70
2022-11-01T01:36:48.419Z,0.40
2022-11-01T01:37:50.908Z,0.33
2022-11-01T01:38:55.739Z,0.87
2022-11-01T01:40:04.313Z,0.97
2022-11-01T01:41:25.569Z,0.20
2022-11-01T01:42:30.338Z,0.55
2022-11-01T01:43:41.332Z,0.43
2022-11-01T01:45:09.361Z,0.67
2022-11-01T01:46:12.759Z,0.85
2022-11-01T01:47:17.246Z,0.82
2022-11-01T01:48:22.102Z,0.28
2022-11-01T01:49:24.648Z,0.47
2022-11-01T01:50:37.319Z,0.38
2022-11-01T01:51:46.307Z,0.45
2022-11-01T01:52:51.904Z,0.20
2022-11-01T01:53:59.001Z,0.65
2022-11-01T01:55:03.196Z,0.10
2022-11-01T01:56:14.333Z,0.60
2022-11-01T01:57:17.000Z,0.70
2022-11-01T01:58:28.328Z,0.73
2022-11-01T01:59:32.009Z,0.52
2022-11-01T02:00:35.864Z,0.20
2022-11-01T02:01:41.005Z,0.33
2022-11-01T02:02:51.332Z,0.37
2022-11-01T02:03:54.923Z,0.23
2022-11-01T02:04:59.044Z,0.17
2022-11-01T02:06:05.419Z,0.27
2022-11-01T02:07:15.307Z,0.35
2022-11-01T02:08:34.318Z,0.45
2022-11-01T02:09:38.723Z,0.57
2022-11-01T02:10:42.472Z,0.28
2022-11-01T02:11:44.998Z,0.45
2022-11-01T02:12:49.957Z,0.87
2022-11-01T02:14:00.336Z,1.00
2022-11-01T02:15:02.978Z,0.63
2022-11-01T02:16:16.017Z,0.60
2022-11-01T02:17:22.961Z,0.20
2022-11-01T02:18:30.027Z,0.30
2022-11-01T02:19:58.321Z,0.57
2022-11-01T02:21:16.548Z,0.50
2022-11-01T02:22:27.667Z,0.25
2022-11-01T02:24:02.319Z,0.47
2022-11-01T02:25:17.315Z,0.17
2022-11-01T02:26:33.625Z,0.38
2022-11-01T02:27:42.308Z,0.10
2022-11-01T02:28:49.314Z,0.40
2022-11-01T02:30:13.323Z,0.55
2022-11-01T02:31:30.690Z,0.30
2022-11-01T02:32:48.712Z,0.00
2022-11-01T02:33:53.735Z,0.00
2022-11-01T02:35:05.374Z,0.38
2022-11-01T02:36:10.468Z,0.35
2022-11-01T02:37:15.858Z,0.30
2022-11-01T02:38:23.422Z,0.20
2022-11-01T02:39:28.938Z,0.73
2022-11-01T02:40:42.335Z,0.45
2022-11-01T02:41:49.248Z,0.30
2022-11-01T02:43:02.700Z,0.43
2022-11-01T02:44:06.979Z,0.45
2022-11-01T02:45:12.320Z,0.30
2022-11-01T02:46:40.411Z,0.10
2022-11-01T02:47:50.326Z,0.30
2022-11-01T02:48:54.465Z,0.45
2022-11-01T02:50:00.994Z,0.98
2022-11-01T02:51:03.663Z,0.20
2022-11-01T02:52:08.306Z,0.50
2022-11-01T02:53:17.323Z,1.15
2022-11-01T02:54:22.828Z,0.08
2022-11-01T02:55:30.148Z,0.32
2022-11-01T02:56:34.222Z,0.13
2022-11-01T02:57:45.322Z,0.32
2022-11-01T02:58:56.366Z,0.73
2022-11-01T03:00:06.471Z,0.28
2022-11-01T03:01:15.718Z,0.28
2022-11-01T03:02:20.615Z,0.25
2022-11-01T03:03:32.324Z,0.55
2022-11-01T03:04:36.397Z,0.68
2022-11-01T03:05:45.026Z,0.20
2022-11-01T03:06:51.376Z,0.32
2022-11-01T03:08:03.818Z,0.25
2022-11-01T03:09:10.149Z,0.30
2022-11-01T03:10:12.969Z,0.20
2022-11-01T03:11:17.495Z,0.40
2022-11-01T03:12:21.374Z,0.43
2022-11-01T03:13:39.402Z,0.52
2022-11-01T03:14:44.537Z,1.55
2022-11-01T03:15:52.896Z,0.35
2022-11-01T03:17:01.327Z,0.77
2022-11-01T03:18:05.504Z,0.43
2022-11-01T03:19:17.334Z,1.27
2022-11-01T03:20:23.965Z,0.52
2022-11-01T03:21:28.861Z,0.05
2022-11-01T03:22:43.953Z,0.57
2022-11-01T03:24:02.342Z,0.22
2022-11-01T03:25:28.556Z,0.75
2022-11-01T03:26:35.219Z,0.03
2022-11-01T03:27:41.453Z,0.43
2022-11-01T03:28:53.367Z,0.30
2022-11-01T03:30:07.474Z,0.55
2022-11-01T03:31:12.149Z,0.45
2022-11-01T03:32:16.356Z,0.47
2022-11-01T03:33:19.569Z,0.40
2022-11-01T03:34:23.032Z,0.45
2022-11-01T03:35:34.386Z,1.17
2022-11-01T03:36:40.254Z,0.68
2022-11-01T03:37:45.154Z,0.35
2022-11-01T03:38:53.364Z,0.52
2022-11-01T03:39:56.517Z,0.35
2022-11-01T03:41:09.416Z,0.60
2022-11-01T03:42:14.656Z,0.20
2022-11-01T03:43:18.557Z,0.85
2022-11-01T03:44:22.099Z,0.73
2022-11-01T03:45:25.581Z,1.50
2022-11-01T03:46:35.350Z,0.77
2022-11-01T03:47:38.333Z,0.63
2022-11-01T03:48:41.863Z,0.65
2022-11-01T03:49:44.338Z,1.23
2022-11-01T03:50:52.881Z,0.80
2022-11-01T03:52:02.611Z,0.82
2022-11-01T03:53:06.171Z,0.80
2022-11-01T03:54:11.146Z,0.73
2022-11-01T03:55:19.447Z,0.70
2022-11-01T03:56:22.156Z,1.23
2022-11-01T03:57:32.355Z,0.65
2022-11-01T03:58:47.275Z,0.10
2022-11-01T03:59:50.902Z,0.73
2022-11-01T04:00:55.881Z,0.63
2022-11-01T04:02:06.635Z,0.30
2022-11-01T04:03:10.192Z,0.63
2022-11-01T04:04:13.629Z,0.37
2022-11-01T04:05:16.223Z,0.77
2022-11-01T04:06:20.950Z,0.50
2022-11-01T04:07:30.351Z,0.73
2022-11-01T04:08:40.409Z,0.33
2022-11-01T04:09:43.889Z,0.90
2022-11-01T04:10:46.373Z,1.87
2022-11-01T04:11:49.816Z,1.15
2022-11-01T04:12:53.070Z,0.30
2022-11-01T04:14:23.419Z,0.43
2022-11-01T04:15:45.100Z,0.52
2022-11-01T04:17:17.733Z,1.08
2022-11-01T04:20:07.384Z,0.17
2022-11-01T04:21:11.573Z,0.25
2022-11-01T04:22:23.733Z,0.60
2022-11-01T04:23:41.341Z,0.43
2022-11-01T04:24:50.875Z,0.20
2022-11-01T04:25:54.311Z,0.55
2022-11-01T04:26:57.732Z,0.40
2022-11-01T04:28:00.622Z,0.73
2022-11-01T04:29:04.153Z,0.50
2022-11-01T04:30:13.369Z,0.30
2022-11-01T04:31:16.765Z,0.60
2022-11-01T04:32:19.318Z,0.82
2022-11-01T04:33:22.818Z,0.50
2022-11-01T04:34:46.363Z,1.00
2022-11-01T04:35:56.358Z,0.45
2022-11-01T04:36:58.827Z,0.83
2022-11-01T04:38:04.037Z,0.28
2022-11-01T04:39:08.305Z,0.68
2022-11-01T04:40:11.257Z,0.90
2022-11-01T04:41:21.409Z,0.43
2022-11-01T04:42:23.903Z,0.93
2022-11-01T04:43:27.296Z,0.55
2022-11-01T04:44:30.556Z,0.75
2022-11-01T04:45:34.044Z,0.47
2022-11-01T04:46:44.403Z,0.68
2022-11-01T04:47:52.187Z,0.30
2022-11-01T04:48:55.655Z,0.85
2022-11-01T04:49:58.221Z,0.70
2022-11-01T04:51:03.117Z,0.60
2022-11-01T04:52:12.429Z,1.38
2022-11-01T04:53:17.446Z,0.08
2022-11-01T04:54:19.913Z,1.27
2022-11-01T04:55:23.313Z,1.52
2022-11-01T04:56:25.875Z,0.57
2022-11-01T04:57:35.359Z,0.65
2022-11-01T04:58:43.091Z,1.20
2022-11-01T04:59:48.886Z,0.52
2022-11-01T05:00:52.418Z,0.47
2022-11-01T05:01:54.990Z,0.82
2022-11-01T05:03:09.373Z,0.75
2022-11-01T05:04:12.791Z,1.15
2022-11-01T05:05:15.329Z,0.77
2022-11-01T05:06:18.928Z,0.80
2022-11-01T05:07:21.419Z,0.77
2022-11-01T05:08:32.400Z,0.60
2022-11-01T05:09:34.914Z,0.33
2022-11-01T05:10:39.800Z,1.13
2022-11-01T05:11:42.300Z,0.98
2022-11-01T05:12:45.707Z,0.73
2022-11-01T05:13:54.380Z,1.20
2022-11-01T05:14:57.786Z,0.70
2022-11-01T05:16:20.107Z,0.52
2022-11-01T05:17:24.669Z,0.95
2022-11-01T05:18:27.181Z,0.98
2022-11-01T05:19:37.377Z,0.93
2022-11-01T05:20:40.005Z,0.93
2022-11-01T05:21:43.528Z,0.73
2022-11-01T05:22:52.634Z,0.40
2022-11-01T05:24:10.405Z,1.05
2022-11-01T05:25:12.979Z,1.52
2022-11-01T05:26:16.571Z,0.95
2022-11-01T05:27:19.141Z,0.30
2022-11-01T05:28:23.759Z,0.77
2022-11-01T05:29:33.393Z,1.73
2022-11-01T05:30:37.881Z,0.47
2022-11-01T05:31:40.460Z,1.35
2022-11-01T05:32:43.894Z,0.98
2022-11-01T05:33:47.321Z,0.57
2022-11-01T05:34:56.398Z,0.80
2022-11-01T05:36:02.116Z,0.97
2022-11-01T05:37:04.614Z,0.73
2022-11-01T05:38:08.183Z,0.55
2022-11-01T05:39:12.138Z,0.65
2022-11-01T05:40:22.409Z,1.57
2022-11-01T05:41:25.943Z,1.10
2022-11-01T05:42:28.430Z,1.45
2022-11-01T05:43:31.958Z,1.08
2022-11-01T05:44:34.492Z,1.08
2022-11-01T05:45:44.454Z,1.80
2022-11-01T05:46:46.938Z,0.77
2022-11-01T05:47:50.347Z,1.50
2022-11-01T05:48:52.836Z,0.95
2022-11-01T05:49:56.329Z,0.90
2022-11-01T05:51:05.453Z,0.50
2022-11-01T05:52:08.856Z,0.82
2022-11-01T05:53:11.408Z,0.40
2022-11-01T05:54:16.201Z,1.10
2022-11-01T05:55:18.873Z,1.20
2022-11-01T05:56:28.397Z,1.23
2022-11-01T05:57:33.433Z,0.30
2022-11-01T05:58:37.226Z,0.50
2022-11-01T05:59:39.710Z,0.93
2022-11-01T06:00:43.118Z,0.47
2022-11-01T06:01:52.503Z,1.13
2022-11-01T06:02:56.055Z,1.13
2022-11-01T06:04:01.910Z,1.02
2022-11-01T06:05:05.399Z,0.68
2022-11-01T06:06:14.378Z,0.73
2022-11-01T06:07:24.444Z,0.93
2022-11-01T06:08:27.032Z,1.38
2022-11-01T06:09:32.249Z,1.33
2022-11-01T06:10:35.342Z,0.75
2022-11-01T06:11:41.660Z,0.90
2022-11-01T06:12:51.390Z,0.75
2022-11-01T06:14:02.396Z,1.30
2022-11-01T06:15:05.314Z,0.52
2022-11-01T06:16:09.129Z,0.73
2022-11-01T06:17:13.555Z,0.60
2022-11-01T06:18:22.386Z,1.37
2022-11-01T06:19:25.892Z,1.05
2022-11-01T06:20:30.640Z,0.35
2022-11-01T06:21:39.393Z,0.68
2022-11-01T06:22:49.547Z,0.43
2022-11-01T06:23:59.581Z,1.02
2022-11-01T06:25:10.407Z,0.80
2022-11-01T06:26:14.113Z,0.60
2022-11-01T06:27:16.677Z,0.70
2022-11-01T06:28:20.133Z,0.77
2022-11-01T06:29:29.433Z,0.20
2022-11-01T06:30:32.855Z,1.30
2022-11-01T06:31:35.322Z,0.73
2022-11-01T06:32:38.750Z,1.00
2022-11-01T06:33:41.313Z,0.75
2022-11-01T06:34:51.389Z,1.58
2022-11-01T06:35:54.146Z,0.55
2022-11-01T06:36:57.780Z,1.23
2022-11-01T06:38:02.716Z,1.55
2022-11-01T06:39:13.399Z,1.63
2022-11-01T06:40:18.212Z,1.23
2022-11-01T06:41:20.898Z,1.20
2022-11-01T06:42:32.767Z,2.70
2022-11-01T06:43:35.270Z,1.42
2022-11-01T06:44:38.687Z,2.58
2022-11-01T06:45:41.269Z,2.45
2022-11-01T06:46:44.768Z,2.58
2022-11-01T06:47:54.398Z,1.48
2022-11-01T06:48:57.927Z,2.33
2022-11-01T06:50:00.396Z,1.58
2022-11-01T06:51:07.264Z,2.30
2022-11-01T06:52:09.711Z,2.05
2022-11-01T06:53:19.376Z,1.50
2022-11-01T06:54:22.055Z,2.78
2022-11-01T06:55:27.760Z,1.73
2022-11-01T06:56:30.243Z,2.08
2022-11-01T06:57:40.403Z,0.77
2022-11-01T06:58:42.877Z,1.63
2022-11-01T06:59:46.272Z,2.53
2022-11-01T07:00:48.770Z,1.52
2022-11-01T07:01:59.493Z,1.50
2022-11-01T07:03:09.397Z,0.90
2022-11-01T07:04:12.901Z,0.88
2022-11-01T07:05:15.506Z,0.82
2022-11-01T07:06:25.402Z,1.17
2022-11-01T07:07:41.455Z,1.13
2022-11-01T07:08:44.883Z,1.10
2022-11-01T07:09:47.443Z,1.58
2022-11-01T07:10:52.302Z,2.38
2022-11-01T07:11:54.783Z,1.13
2022-11-01T07:13:08.425Z,1.88
2022-11-01T07:14:12.052Z,2.78
2022-11-01T07:15:14.603Z,2.47
2022-11-01T07:16:18.040Z,0.45
2022-11-01T07:17:20.590Z,0.80
2022-11-01T07:18:30.416Z,1.35
2022-11-01T07:19:33.824Z,1.95
2022-11-01T07:20:41.807Z,2.10
2022-11-01T07:21:45.442Z,1.08
2022-11-01T07:22:54.629Z,1.95
2022-11-01T07:24:11.420Z,1.35
2022-11-01T07:25:13.904Z,1.83
2022-11-01T07:26:18.623Z,1.67
2022-11-01T07:27:21.099Z,1.55
2022-11-01T07:28:31.414Z,2.10
2022-11-01T07:29:33.939Z,2.55
2022-11-01T07:30:37.720Z,3.00
2022-11-01T07:31:41.042Z,0.82
2022-11-01T07:32:44.451Z,1.27
2022-11-01T07:33:54.380Z,1.35
2022-11-01T07:34:56.877Z,1.80
2022-11-01T07:36:00.500Z,1.20
2022-11-01T07:37:03.005Z,1.70
2022-11-01T07:38:12.523Z,1.00
2022-11-01T07:39:22.461Z,1.00
2022-11-01T07:40:27.966Z,0.90
2022-11-01T07:41:32.046Z,2.17
2022-11-01T07:42:35.514Z,1.67
2022-11-01T07:43:38.737Z,1.67
2022-11-01T07:44:52.420Z,2.75
2022-11-01T07:45:55.846Z,1.98
2022-11-01T07:46:59.348Z,1.75
2022-11-01T07:48:03.941Z,5.30
2022-11-01T07:49:14.404Z,2.05
2022-11-01T07:50:16.982Z,1.45
2022-11-01T07:51:20.421Z,1.40
2022-11-01T07:52:22.970Z,2.78
2022-11-01T07:53:26.720Z,3.03
2022-11-01T07:54:35.448Z,1.40
2022-11-01T07:55:39.034Z,1.65
2022-11-01T07:56:43.776Z,2.35
2022-11-01T07:57:46.897Z,2.78
2022-11-01T07:58:56.433Z,1.40
2022-11-01T07:59:58.939Z,1.38
2022-11-01T08:01:02.500Z,1.10
2022-11-01T08:02:07.887Z,2.03
2022-11-01T08:03:12.694Z,1.73
2022-11-01T08:04:21.478Z,2.33
2022-11-01T08:05:24.891Z,1.95
2022-11-01T08:06:27.395Z,0.88
2022-11-01T08:07:30.845Z,2.22
2022-11-01T08:08:33.357Z,2.22
2022-11-01T08:09:43.471Z,1.42
2022-11-01T08:10:46.183Z,1.88
2022-11-01T08:11:51.059Z,1.75
2022-11-01T08:12:53.608Z,1.65
2022-11-01T08:14:02.763Z,1.50
2022-11-01T08:15:16.520Z,0.95
2022-11-01T08:16:20.045Z,1.25
2022-11-01T08:17:23.852Z,1.35
2022-11-01T08:18:27.267Z,1.30
2022-11-01T08:19:29.819Z,1.60
2022-11-01T08:20:40.487Z,2.53
2022-11-01T08:21:44.129Z,1.42
2022-11-01T08:22:53.239Z,1.65
2022-11-01T08:24:03.683Z,1.38
2022-11-01T08:25:07.820Z,1.43
2022-11-01T08:26:18.515Z,2.40
2022-11-01T08:27:23.261Z,1.70
2022-11-01T08:28:28.532Z,0.88
2022-11-01T08:29:31.036Z,1.87
2022-11-01T08:30:34.738Z,1.70
2022-11-01T08:31:46.427Z,1.23
2022-11-01T08:32:49.868Z,0.90
2022-11-01T08:33:52.374Z,2.10
2022-11-01T08:34:55.830Z,1.05
2022-11-01T08:36:04.480Z,2.28
2022-11-01T08:37:07.969Z,1.02
2022-11-01T08:38:11.551Z,3.10
2022-11-01T08:39:14.042Z,1.93
2022-11-01T08:40:17.697Z,1.48
2022-11-01T08:41:26.491Z,2.80
2022-11-01T08:42:31.199Z,1.20
2022-11-01T08:43:38.014Z,1.47
2022-11-01T08:44:44.131Z,1.50
2022-11-01T08:45:46.714Z,2.67
2022-11-01T08:46:56.459Z,1.77
2022-11-01T08:47:59.583Z,1.60
2022-11-01T08:49:09.424Z,2.43
2022-11-01T08:50:13.001Z,2.20
2022-11-01T08:51:30.435Z,1.17
2022-11-01T08:52:32.959Z,3.13
2022-11-01T08:53:43.437Z,1.17
2022-11-01T08:54:46.869Z,1.80
2022-11-01T08:55:56.135Z,2.38
2022-11-01T08:56:58.790Z,2.97
2022-11-01T08:58:10.485Z,2.33
2022-11-01T08:59:14.223Z,1.42
2022-11-01T09:00:17.252Z,2.45
2022-11-01T09:01:20.970Z,2.45
2022-11-01T09:02:23.697Z,2.58
2022-11-01T09:03:33.476Z,1.85
2022-11-01T09:04:36.920Z,1.40
2022-11-01T09:05:40.366Z,1.08
2022-11-01T09:06:42.864Z,1.90
2022-11-01T09:07:46.632Z,2.08
2022-11-01T09:08:56.495Z,2.90
2022-11-01T09:09:59.954Z,2.70
2022-11-01T09:11:02.652Z,2.00
2022-11-01T09:12:08.660Z,2.08
2022-11-01T09:13:17.665Z,2.40
2022-11-01T09:14:30.440Z,3.47
2022-11-01T09:15:34.037Z,2.42
2022-11-01T09:16:36.683Z,3.28
2022-11-01T09:17:40.112Z,2.15
2022-11-01T09:18:43.754Z,2.72
2022-11-01T09:19:53.525Z,3.47
2022-11-01T09:20:57.291Z,2.88
2022-11-01T09:21:59.830Z,3.13
2022-11-01T09:23:09.681Z,2.78
2022-11-01T09:24:13.158Z,3.38
2022-11-01T09:25:22.439Z,2.90
2022-11-01T09:26:27.337Z,3.67
2022-11-01T09:27:30.773Z,3.90
2022-11-01T09:28:34.882Z,3.42
2022-11-01T09:29:38.407Z,3.17
2022-11-01T09:30:50.200Z,4.35
2022-11-01T09:32:11.543Z,2.20
2022-11-01T09:33:14.107Z,2.20
2022-11-01T09:34:17.559Z,3.90
2022-11-01T09:35:20.021Z,2.10
2022-11-01T09:36:23.474Z,4.53
2022-11-01T09:37:32.434Z,3.60
2022-11-01T09:38:37.186Z,2.97
2022-11-01T09:39:39.684Z,4.78
2022-11-01T09:40:46.738Z,4.22
2022-11-01T09:41:57.451Z,4.03
2022-11-01T09:43:08.043Z,2.03
2022-11-01T09:44:16.594Z,2.55
2022-11-01T09:45:21.298Z,3.70
2022-11-01T09:46:26.377Z,3.95
2022-11-01T09:47:31.188Z,2.25
2022-11-01T09:48:41.463Z,3.40
2022-11-01T09:49:48.316Z,3.05
2022-11-01T09:50:51.759Z,3.28
2022-11-01T09:51:55.203Z,4.15
2022-11-01T09:53:07.466Z,4.47
2022-11-01T09:54:11.075Z,2.33
2022-11-01T09:55:15.878Z,4.18
2022-11-01T09:56:22.736Z,5.88
2022-11-01T09:57:29.752Z,4.22
2022-11-01T09:58:43.584Z,2.92
2022-11-01T09:59:51.363Z,5.13
2022-11-01T10:00:56.577Z,4.25
2022-11-01T10:02:09.748Z,4.47
2022-11-01T10:03:20.233Z,5.60
2022-11-01T10:04:43.459Z,4.28
2022-11-01T10:05:57.499Z,5.47
2022-11-01T10:07:03.457Z,4.78
2022-11-01T10:08:12.662Z,6.82
2022-11-01T10:09:20.639Z,4.63
2022-11-01T10:10:35.769Z,5.20
2022-11-01T10:11:59.475Z,3.72
2022-11-01T10:13:09.423Z,4.63
2022-11-01T10:14:17.215Z,5.53
2022-11-01T10:15:38.293Z,4.95
2022-11-01T10:16:46.298Z,4.10
2022-11-01T10:17:56.480Z,4.57
2022-11-01T10:19:04.510Z,6.53
2022-11-01T10:20:16.477Z,3.63
2022-11-01T10:21:23.456Z,5.22
2022-11-01T10:22:50.537Z,4.85
2022-11-01T10:23:54.973Z,5.50
2022-11-01T10:25:05.456Z,4.78
2022-11-01T10:26:10.016Z,4.40
2022-11-01T10:27:18.432Z,3.30
2022-11-01T10:28:24.237Z,4.38
2022-11-01T10:29:40.468Z,3.90
2022-11-01T10:30:46.841Z,3.90
2022-11-01T10:32:00.474Z,3.72
2022-11-01T10:33:06.577Z,5.80
2022-11-01T10:34:14.580Z,4.10
2022-11-01T10:35:21.163Z,4.30
2022-11-01T10:36:26.678Z,4.47
2022-11-01T10:37:51.870Z,4.88
2022-11-01T10:40:43.476Z,2.65
2022-11-01T10:41:49.815Z,4.13
2022-11-01T10:42:52.652Z,4.97
2022-11-01T10:43:57.288Z,3.55
2022-11-01T10:45:02.012Z,3.72
2022-11-01T10:46:13.483Z,5.70
2022-11-01T10:47:20.158Z,4.07
2022-11-01T10:48:28.535Z,4.82
2022-11-01T10:51:10.478Z,3.97
2022-11-01T10:52:22.581Z,2.88
2022-11-01T10:53:27.538Z,3.67
2022-11-01T10:54:32.096Z,4.10
2022-11-01T10:55:43.643Z,3.27
2022-11-01T10:56:48.903Z,5.53
2022-11-01T10:58:07.508Z,3.90
2022-11-01T10:59:13.170Z,3.07
2022-11-01T11:00:17.894Z,5.70
2022-11-01T11:01:23.088Z,6.07
2022-11-01T11:02:29.912Z,4.93
2022-11-01T11:03:39.494Z,4.67
2022-11-01T11:04:43.071Z,5.23
2022-11-01T11:05:46.976Z,3.73
2022-11-01T11:06:49.588Z,4.67
2022-11-01T11:07:53.071Z,3.77
2022-11-01T11:09:02.466Z,3.30
2022-11-01T11:10:12.493Z,3.40
2022-11-01T11:11:16.039Z,3.30
2022-11-01T11:12:20.645Z,3.03
2022-11-01T11:13:25.159Z,1.97
2022-11-01T11:14:31.693Z,4.43
2022-11-01T11:15:43.531Z,4.07
2022-11-01T11:16:48.485Z,2.23
2022-11-01T11:17:56.208Z,4.10
2022-11-01T11:19:02.989Z,3.60
2022-11-01T11:20:14.511Z,4.30
2022-11-01T11:21:17.062Z,3.22
2022-11-01T11:22:22.640Z,3.00
2022-11-01T11:23:36.237Z,3.35
2022-11-01T11:24:46.300Z,2.15
2022-11-01T11:25:57.454Z,2.90
2022-11-01T11:27:06.481Z,4.15
2022-11-01T11:28:17.838Z,4.10
2022-11-01T11:29:25.931Z,2.13
2022-11-01T11:30:30.334Z,2.95
2022-11-01T11:31:41.541Z,3.77
2022-11-01T11:32:49.578Z,4.43
2022-11-01T11:33:54.797Z,6.30
2022-11-01T11:34:59.801Z,4.32
2022-11-01T11:36:02.323Z,4.53
2022-11-01T11:37:13.513Z,4.00
2022-11-01T11:38:15.996Z,3.70
2022-11-01T11:39:29.073Z,4.30
2022-11-01T11:40:43.105Z,3.45
2022-11-01T11:41:47.304Z,4.80
2022-11-01T11:42:57.538Z,2.88
2022-11-01T11:44:01.229Z,4.15
2022-11-01T11:45:15.997Z,3.58
2022-11-01T11:46:21.777Z,4.82
2022-11-01T11:47:31.551Z,3.30
2022-11-01T11:48:35.091Z,5.10
2022-11-01T11:49:40.001Z,4.10
2022-11-01T11:50:43.915Z,4.95
2022-11-01T11:51:47.136Z,2.78
2022-11-01T11:52:58.479Z,2.33
2022-11-01T11:54:19.514Z,4.07
2022-11-01T11:55:27.622Z,3.25
2022-11-01T11:56:31.371Z,5.10
2022-11-01T11:57:40.630Z,4.35
2022-11-01T11:58:54.469Z,3.58
2022-11-01T12:00:05.587Z,3.45
2022-11-01T12:01:10.236Z,3.55
2022-11-01T12:02:17.816Z,2.67
2022-11-01T12:03:22.641Z,3.13
2022-11-01T12:04:25.182Z,3.42
2022-11-01T12:05:36.514Z,3.47
2022-11-01T12:06:40.756Z,3.58
2022-11-01T12:07:46.951Z,3.38
2022-11-01T12:08:51.545Z,3.28
2022-11-01T12:09:55.552Z,2.72
2022-11-01T12:11:06.485Z,4.00
2022-11-01T12:12:16.585Z,2.67
2022-11-01T12:13:25.999Z,3.53
2022-11-01T12:14:29.960Z,3.22
2022-11-01T12:15:38.580Z,4.43
2022-11-01T12:16:51.542Z,2.95
2022-11-01T12:17:54.523Z,2.33
2022-11-01T12:18:58.862Z,2.38
2022-11-01T12:20:02.642Z,3.63
2022-11-01T12:21:16.690Z,2.65
2022-11-01T12:22:26.520Z,3.88
2022-11-01T12:23:45.511Z,3.25
2022-11-01T12:24:49.492Z,3.60
2022-11-01T12:25:53.364Z,3.90
2022-11-01T12:26:58.847Z,3.30
2022-11-01T12:28:04.572Z,2.60
2022-11-01T12:29:19.569Z,3.03
2022-11-01T12:30:24.727Z,4.53
2022-11-01T12:31:31.488Z,3.60
2022-11-01T12:32:39.052Z,4.93
2022-11-01T12:33:43.582Z,3.58
2022-11-01T12:34:54.520Z,1.83
2022-11-01T12:35:59.830Z,4.75
2022-11-01T12:37:06.916Z,3.22
2022-11-01T12:38:29.581Z,3.05
2022-11-01T12:39:47.621Z,4.45
2022-11-01T12:41:01.657Z,3.67
2022-11-01T12:42:05.059Z,3.65
2022-11-01T12:43:13.979Z,2.30
2022-11-01T12:44:32.516Z,4.38
2022-11-01T12:45:53.516Z,2.57
2022-11-01T12:46:59.660Z,3.40
2022-11-01T12:48:04.780Z,1.90
2022-11-01T12:49:14.377Z,2.90
2022-11-01T12:50:26.571Z,4.90
2022-11-01T12:51:32.580Z,3.37
2022-11-01T12:52:38.568Z,2.95
2022-11-01T12:53:44.561Z,2.43
2022-11-01T12:54:49.859Z,2.60
2022-11-01T12:55:59.520Z,4.03
2022-11-01T12:57:03.220Z,2.93
2022-11-01T12:58:10.293Z,2.30
2022-11-01T12:59:19.950Z,3.20
2022-11-01T13:00:22.595Z,3.33
2022-11-01T13:01:38.662Z,3.33
2022-11-01T13:02:57.010Z,3.20
2022-11-01T13:04:07.339Z,3.90
2022-11-01T13:05:15.686Z,3.73
2022-11-01T13:06:32.519Z,4.83
2022-11-01T13:07:43.731Z,1.70
2022-11-01T13:08:51.549Z,3.80
2022-11-01T13:10:03.150Z,3.17
2022-11-01T13:11:18.513Z,1.53
2022-11-01T13:12:27.381Z,4.20
2022-11-01T13:13:41.517Z,2.90
2022-11-01T13:14:47.428Z,2.70
2022-11-01T13:15:56.776Z,3.23
2022-11-01T13:17:10.555Z,3.40
2022-11-01T13:18:16.407Z,2.77
2022-11-01T13:19:23.504Z,2.47
2022-11-01T13:20:30.102Z,1.80
2022-11-01T13:21:37.920Z,3.03
2022-11-01T13:22:52.511Z,3.37
2022-11-01T13:24:06.837Z,4.03
2022-11-01T13:25:14.287Z,3.07
2022-11-01T13:26:21.548Z,2.63
2022-11-01T13:27:27.848Z,2.97
2022-11-01T13:28:56.654Z,4.33
2022-11-01T13:30:03.627Z,1.53
2022-11-01T13:31:08.847Z,2.50
2022-11-01T13:32:15.616Z,1.63
2022-11-01T13:33:21.147Z,1.87
2022-11-01T13:34:44.520Z,3.00
2022-11-01T13:35:58.584Z,2.97
2022-11-01T13:37:06.819Z,2.00
2022-11-01T13:38:17.581Z,2.35
2022-11-01T13:39:26.338Z,4.37
2022-11-01T13:40:31.677Z,4.35
2022-11-01T13:41:45.516Z,3.22
2022-11-01T13:42:51.458Z,2.70
2022-11-01T13:43:56.515Z,3.97
2022-11-01T13:45:05.280Z,2.20
2022-11-01T13:46:34.537Z,5.73
2022-11-01T13:49:01.928Z,4.18
2022-11-01T13:50:11.656Z,4.22
2022-11-01T13:51:25.848Z,3.65
2022-11-01T13:52:37.538Z,5.28
2022-11-01T13:53:43.023Z,5.18
2022-11-01T13:54:51.314Z,4.67
2022-11-01T13:55:56.357Z,3.67
2022-11-01T13:57:01.475Z,4.10
2022-11-01T13:58:13.516Z,1.73
2022-11-01T13:59:18.870Z,2.42
2022-11-01T14:00:37.866Z,3.67
2022-11-01T14:01:40.811Z,2.77
2022-11-01T14:03:02.550Z,2.60
2022-11-01T14:04:16.514Z,1.58
2022-11-01T14:05:19.399Z,2.75
2022-11-01T14:07:40.534Z,3.35
2022-11-01T14:08:53.515Z,1.65
2022-11-01T14:09:57.278Z,1.67
2022-11-01T14:10:59.783Z,2.75
2022-11-01T14:12:14.144Z,3.85
2022-11-01T14:13:24.534Z,1.27
2022-11-01T14:14:46.394Z,2.75
2022-11-01T14:16:04.614Z,1.08
2022-11-01T14:17:27.143Z,1.92
2022-11-01T14:18:38.545Z,3.45
2022-11-01T14:19:42.753Z,2.75
2022-11-01T14:20:47.256Z,1.13
2022-11-01T14:22:00.537Z,1.67
2022-11-01T14:23:36.794Z,3.75
2022-11-01T14:25:02.537Z,2.78
2022-11-01T14:26:24.741Z,2.25
2022-11-01T14:27:38.624Z,1.85
2022-11-01T14:28:43.763Z,3.75
2022-11-01T14:29:56.528Z,3.00
2022-11-01T14:30:59.985Z,3.03
2022-11-01T14:32:03.775Z,3.20
2022-11-01T14:33:09.077Z,2.67
2022-11-01T14:34:22.741Z,3.53
2022-11-01T14:35:34.559Z,2.97
2022-11-01T14:36:46.520Z,3.65
2022-11-01T14:37:52.496Z,2.85
2022-11-01T14:38:57.873Z,2.25
2022-11-01T14:40:34.544Z,3.42
2022-11-01T14:41:51.263Z,2.42
2022-11-01T14:43:02.621Z,2.40
2022-11-01T14:44:11.747Z,1.02
2022-11-01T14:45:30.178Z,2.03
2022-11-01T14:46:41.945Z,2.67
2022-11-01T14:47:56.797Z,3.70
2022-11-01T14:49:02.136Z,3.55
2022-11-01T14:50:08.285Z,3.70
2022-11-01T14:51:18.378Z,2.03
2022-11-01T14:52:24.682Z,4.15
2022-11-01T14:53:37.547Z,2.28
2022-11-01T14:54:45.129Z,3.00
2022-11-01T14:55:48.661Z,4.65
2022-11-01T14:56:53.202Z,3.88
2022-11-01T14:58:14.640Z,2.33
2022-11-01T14:59:21.530Z,3.53
2022-11-01T15:00:28.683Z,3.22
2022-11-01T15:01:32.355Z,3.28
2022-11-01T15:02:35.248Z,3.53
2022-11-01T15:03:45.581Z,3.28
2022-11-01T15:04:48.254Z,3.35
2022-11-01T15:05:52.323Z,2.50